sensor_id;sensor_type;location;lat;lon;timestamp;P1;durP1;ratioP1;P2;durP2;ratioP2
20908;SDS011;10614;53.198;6.570;2023-12-07T08:42:47;34.88;;;16.58;;
20908;SDS011;10614;53.198;6.570;2023-12-07T08:44:51;38.25;;;18.52;;
20908;SDS011;10614;53.198;6.570;2023-12-07T08:46:54;39.22;;;18.58;;
20908;SDS011;10614;53.198;6.570;2023-12-07T08:48:56;39.88;;;18.45;;
20908;SDS011;10614;53.198;6.570;2023-12-07T08:51:01;42.40;;;18.63;;
20908;SDS011;10614;53.198;6.570;2023-12-07T08:53:03;39.60;;;18.40;;
20908;SDS011;10614;53.198;6.570;2023-12-07T08:55:07;44.22;;;20.63;;
20908;SDS011;10614;53.198;6.570;2023-12-07T08:57:10;42.47;;;19.77;;
20908;SDS011;10614;53.198;6.570;2023-12-07T08:59:15;47.53;;;20.27;;
20908;SDS011;10614;53.198;6.570;2023-12-07T09:01:19;45.47;;;21.02;;
20908;SDS011;10614;53.198;6.570;2023-12-07T09:03:22;51.97;;;22.30;;
20908;SDS011;10614;53.198;6.570;2023-12-07T09:07:35;53.50;;;21.52;;
20908;SDS011;10614;53.198;6.570;2023-12-07T09:09:37;58.88;;;21.98;;
20908;SDS011;10614;53.198;6.570;2023-12-07T09:11:47;48.22;;;21.52;;
20908;SDS011;10614;53.198;6.570;2023-12-07T09:13:49;50.95;;;21.85;;
20908;SDS011;10614;53.198;6.570;2023-12-07T09:22:39;54.42;;;23.27;;
20908;SDS011;10614;53.198;6.570;2023-12-07T09:24:42;51.67;;;22.80;;
20908;SDS011;10614;53.198;6.570;2023-12-07T09:26:44;50.83;;;21.73;;
20908;SDS011;10614;53.198;6.570;2023-12-07T09:28:50;66.05;;;23.98;;
20908;SDS011;10614;53.198;6.570;2023-12-07T09:30:54;58.38;;;23.67;;
20908;SDS011;10614;53.198;6.570;2023-12-07T09:33:00;64.32;;;24.15;;
20908;SDS011;10614;53.198;6.570;2023-12-07T09:35:08;66.30;;;25.00;;
20908;SDS011;10614;53.198;6.570;2023-12-07T09:37:14;60.58;;;27.13;;
20908;SDS011;10614;53.198;6.570;2023-12-07T09:39:19;66.10;;;27.20;;
20908;SDS011;10614;53.198;6.570;2023-12-07T09:41:24;68.78;;;26.70;;
20908;SDS011;10614;53.198;6.570;2023-12-07T09:43:38;60.40;;;26.40;;
20908;SDS011;10614;53.198;6.570;2023-12-07T09:45:41;64.53;;;26.73;;
20908;SDS011;10614;53.198;6.570;2023-12-07T09:47:58;63.55;;;26.83;;
20908;SDS011;10614;53.198;6.570;2023-12-07T09:50:01;66.93;;;27.77;;
20908;SDS011;10614;53.198;6.570;2023-12-07T09:52:04;61.42;;;26.85;;
20908;SDS011;10614;53.198;6.570;2023-12-07T09:54:10;65.57;;;29.67;;
20908;SDS011;10614;53.198;6.570;2023-12-07T09:58:19;61.20;;;28.27;;
20908;SDS011;10614;53.198;6.570;2023-12-07T10:00:22;64.55;;;28.25;;
20908;SDS011;10614;53.198;6.570;2023-12-07T10:02:23;59.35;;;27.80;;
20908;SDS011;10614;53.198;6.570;2023-12-07T10:04:29;66.10;;;28.13;;
20908;SDS011;10614;53.198;6.570;2023-12-07T10:06:37;63.03;;;27.90;;
20908;SDS011;10614;53.198;6.570;2023-12-07T10:08:45;65.40;;;29.83;;
20908;SDS011;10614;53.198;6.570;2023-12-07T10:10:47;65.45;;;28.55;;
20908;SDS011;10614;53.198;6.570;2023-12-07T10:13:04;62.47;;;29.05;;
20908;SDS011;10614;53.198;6.570;2023-12-07T10:15:11;62.03;;;28.77;;
20908;SDS011;10614;53.198;6.570;2023-12-07T10:17:16;64.13;;;29.33;;
20908;SDS011;10614;53.198;6.570;2023-12-07T10:19:19;67.72;;;29.48;;
20908;SDS011;10614;53.198;6.570;2023-12-07T10:21:30;64.63;;;28.55;;
20908;SDS011;10614;53.198;6.570;2023-12-07T10:23:36;63.28;;;27.77;;
20908;SDS011;10614;53.198;6.570;2023-12-07T10:25:44;60.80;;;29.60;;
20908;SDS011;10614;53.198;6.570;2023-12-07T10:27:47;63.03;;;29.83;;
20908;SDS011;10614;53.198;6.570;2023-12-07T10:29:55;58.83;;;28.08;;
20908;SDS011;10614;53.198;6.570;2023-12-07T10:32:00;59.58;;;28.00;;
20908;SDS011;10614;53.198;6.570;2023-12-07T10:34:05;54.30;;;25.95;;
20908;SDS011;10614;53.198;6.570;2023-12-07T10:36:09;56.20;;;27.55;;
20908;SDS011;10614;53.198;6.570;2023-12-07T10:38:13;56.58;;;28.27;;
20908;SDS011;10614;53.198;6.570;2023-12-07T10:40:14;62.25;;;27.65;;
20908;SDS011;10614;53.198;6.570;2023-12-07T10:42:22;58.08;;;26.25;;
20908;SDS011;10614;53.198;6.570;2023-12-07T10:44:33;52.13;;;26.35;;
20908;SDS011;10614;53.198;6.570;2023-12-07T10:46:47;54.05;;;25.67;;
20908;SDS011;10614;53.198;6.570;2023-12-07T10:48:54;52.72;;;25.15;;
20908;SDS011;10614;53.198;6.570;2023-12-07T10:51:02;55.90;;;26.58;;
20908;SDS011;10614;53.198;6.570;2023-12-07T10:53:14;57.95;;;27.73;;
20908;SDS011;10614;53.198;6.570;2023-12-07T10:55:21;57.25;;;26.15;;
20908;SDS011;10614;53.198;6.570;2023-12-07T10:57:29;56.10;;;27.73;;
20908;SDS011;10614;53.198;6.570;2023-12-07T10:59:34;54.60;;;25.65;;
20908;SDS011;10614;53.198;6.570;2023-12-07T11:01:40;50.78;;;26.00;;
20908;SDS011;10614;53.198;6.570;2023-12-07T11:03:44;54.05;;;25.02;;
20908;SDS011;10614;53.198;6.570;2023-12-07T11:05:47;47.75;;;25.30;;
20908;SDS011;10614;53.198;6.570;2023-12-07T11:07:52;48.72;;;25.35;;
20908;SDS011;10614;53.198;6.570;2023-12-07T11:10:07;51.78;;;24.85;;
20908;SDS011;10614;53.198;6.570;2023-12-07T11:12:19;48.28;;;23.92;;
20908;SDS011;10614;53.198;6.570;2023-12-07T11:14:32;49.15;;;25.33;;
20908;SDS011;10614;53.198;6.570;2023-12-07T11:16:36;54.95;;;26.60;;
20908;SDS011;10614;53.198;6.570;2023-12-07T11:18:40;43.22;;;23.05;;
20908;SDS011;10614;53.198;6.570;2023-12-07T11:20:48;50.33;;;24.13;;
20908;SDS011;10614;53.198;6.570;2023-12-07T11:22:53;46.95;;;24.42;;
20908;SDS011;10614;53.198;6.570;2023-12-07T11:24:59;47.85;;;23.15;;
20908;SDS011;10614;53.198;6.570;2023-12-07T11:27:03;43.88;;;22.70;;
20908;SDS011;10614;53.198;6.570;2023-12-07T11:29:19;40.90;;;23.20;;
20908;SDS011;10614;53.198;6.570;2023-12-07T11:31:36;40.72;;;22.80;;
20908;SDS011;10614;53.198;6.570;2023-12-07T11:33:42;42.45;;;22.42;;
20908;SDS011;10614;53.198;6.570;2023-12-07T11:36:04;39.15;;;21.92;;
20908;SDS011;10614;53.198;6.570;2023-12-07T11:38:08;42.88;;;23.25;;
20908;SDS011;10614;53.198;6.570;2023-12-07T11:40:11;43.17;;;22.95;;
20908;SDS011;10614;53.198;6.570;2023-12-07T11:42:15;40.72;;;23.00;;
20908;SDS011;10614;53.198;6.570;2023-12-07T11:57:40;40.10;;;21.92;;
20908;SDS011;10614;53.198;6.570;2023-12-07T11:59:46;34.65;;;21.23;;
20908;SDS011;10614;53.198;6.570;2023-12-07T12:01:51;37.03;;;21.98;;
20908;SDS011;10614;53.198;6.570;2023-12-07T12:03:53;37.38;;;22.25;;
20908;SDS011;10614;53.198;6.570;2023-12-07T12:05:55;43.40;;;23.38;;
20908;SDS011;10614;53.198;6.570;2023-12-07T12:07:56;37.85;;;22.20;;
20908;SDS011;10614;53.198;6.570;2023-12-07T12:09:58;38.47;;;22.65;;
20908;SDS011;10614;53.198;6.570;2023-12-07T12:12:07;36.92;;;21.15;;
20908;SDS011;10614;53.198;6.570;2023-12-07T12:14:09;36.00;;;22.38;;
20908;SDS011;10614;53.198;6.570;2023-12-07T12:16:11;40.35;;;23.58;;
20908;SDS011;10614;53.198;6.570;2023-12-07T12:18:14;37.83;;;22.20;;
20908;SDS011;10614;53.198;6.570;2023-12-07T12:20:16;36.35;;;21.15;;
20908;SDS011;10614;53.198;6.570;2023-12-07T12:22:18;31.55;;;20.27;;
20908;SDS011;10614;53.198;6.570;2023-12-07T12:24:21;34.63;;;21.27;;
20908;SDS011;10614;53.198;6.570;2023-12-07T12:26:25;33.03;;;21.02;;
20908;SDS011;10614;53.198;6.570;2023-12-07T12:28:27;31.88;;;19.95;;
20908;SDS011;10614;53.198;6.570;2023-12-07T12:30:31;30.77;;;19.52;;
20908;SDS011;10614;53.198;6.570;2023-12-07T12:32:43;30.95;;;19.30;;
20908;SDS011;10614;53.198;6.570;2023-12-07T12:34:50;34.35;;;20.40;;
20908;SDS011;10614;53.198;6.570;2023-12-07T12:36:55;30.98;;;19.45;;
20908;SDS011;10614;53.198;6.570;2023-12-07T12:38:58;35.28;;;20.50;;
20908;SDS011;10614;53.198;6.570;2023-12-07T12:41:03;36.17;;;21.55;;
20908;SDS011;10614;53.198;6.570;2023-12-07T12:43:06;39.58;;;23.73;;
20908;SDS011;10614;53.198;6.570;2023-12-07T12:45:08;38.92;;;23.27;;
20908;SDS011;10614;53.198;6.570;2023-12-07T12:47:20;42.25;;;23.60;;
20908;SDS011;10614;53.198;6.570;2023-12-07T12:49:23;47.13;;;24.10;;
20908;SDS011;10614;53.198;6.570;2023-12-07T12:51:39;42.83;;;23.63;;
20908;SDS011;10614;53.198;6.570;2023-12-07T12:53:44;41.28;;;22.90;;
20908;SDS011;10614;53.198;6.570;2023-12-07T12:55:50;44.75;;;24.10;;
20908;SDS011;10614;53.198;6.570;2023-12-07T12:57:55;42.40;;;25.23;;
20908;SDS011;10614;53.198;6.570;2023-12-07T13:01:59;41.20;;;23.05;;
20908;SDS011;10614;53.198;6.570;2023-12-07T13:04:02;38.72;;;22.33;;
20908;SDS011;10614;53.198;6.570;2023-12-07T13:06:10;42.70;;;22.83;;
20908;SDS011;10614;53.198;6.570;2023-12-07T13:08:11;50.90;;;22.48;;
20908;SDS011;10614;53.198;6.570;2023-12-07T13:10:13;38.72;;;21.30;;
20908;SDS011;10614;53.198;6.570;2023-12-07T13:12:15;33.40;;;19.73;;
20908;SDS011;10614;53.198;6.570;2023-12-07T14:20:25;42.35;;;21.65;;
20908;SDS011;10614;53.198;6.570;2023-12-07T14:28:58;42.90;;;20.88;;
20908;SDS011;10614;53.198;6.570;2023-12-07T14:31:04;48.25;;;21.90;;
20908;SDS011;10614;53.198;6.570;2023-12-07T14:33:17;41.65;;;20.67;;
20908;SDS011;10614;53.198;6.570;2023-12-07T14:35:20;44.97;;;21.98;;
20908;SDS011;10614;53.198;6.570;2023-12-07T14:37:25;46.63;;;21.95;;
20908;SDS011;10614;53.198;6.570;2023-12-07T14:39:27;36.60;;;16.80;;
20908;SDS011;10614;53.198;6.570;2023-12-07T14:41:30;45.10;;;21.00;;
20908;SDS011;10614;53.198;6.570;2023-12-07T14:43:32;46.08;;;22.00;;
20908;SDS011;10614;53.198;6.570;2023-12-07T14:45:35;47.67;;;20.65;;
20908;SDS011;10614;53.198;6.570;2023-12-07T14:47:38;50.20;;;21.88;;
20908;SDS011;10614;53.198;6.570;2023-12-07T14:49:41;53.97;;;22.15;;
20908;SDS011;10614;53.198;6.570;2023-12-07T14:51:43;51.08;;;21.67;;
20908;SDS011;10614;53.198;6.570;2023-12-07T14:53:47;52.83;;;20.83;;
20908;SDS011;10614;53.198;6.570;2023-12-07T14:55:49;49.38;;;20.23;;
20908;SDS011;10614;53.198;6.570;2023-12-07T14:57:52;52.58;;;21.52;;
20908;SDS011;10614;53.198;6.570;2023-12-07T14:59:54;54.22;;;20.92;;
20908;SDS011;10614;53.198;6.570;2023-12-07T15:01:58;50.47;;;21.83;;
20908;SDS011;10614;53.198;6.570;2023-12-07T15:04:00;51.88;;;20.50;;
20908;SDS011;10614;53.198;6.570;2023-12-07T15:06:03;56.92;;;21.77;;
20908;SDS011;10614;53.198;6.570;2023-12-07T15:08:05;58.15;;;21.42;;
20908;SDS011;10614;53.198;6.570;2023-12-07T15:10:09;59.22;;;21.65;;
20908;SDS011;10614;53.198;6.570;2023-12-07T15:12:12;60.28;;;22.38;;
20908;SDS011;10614;53.198;6.570;2023-12-07T15:14:14;63.97;;;21.92;;
20908;SDS011;10614;53.198;6.570;2023-12-07T15:16:17;61.38;;;21.83;;
20908;SDS011;10614;53.198;6.570;2023-12-07T15:18:22;64.88;;;22.33;;
20908;SDS011;10614;53.198;6.570;2023-12-07T15:20:24;59.80;;;19.85;;
20908;SDS011;10614;53.198;6.570;2023-12-07T15:22:25;56.90;;;21.85;;
20908;SDS011;10614;53.198;6.570;2023-12-07T15:24:28;71.55;;;23.73;;
20908;SDS011;10614;53.198;6.570;2023-12-07T15:26:33;66.88;;;22.55;;
20908;SDS011;10614;53.198;6.570;2023-12-07T15:28:36;67.20;;;22.40;;
20908;SDS011;10614;53.198;6.570;2023-12-07T15:30:40;77.10;;;25.60;;
20908;SDS011;10614;53.198;6.570;2023-12-07T15:32:46;82.85;;;24.98;;
20908;SDS011;10614;53.198;6.570;2023-12-07T16:45:17;98.53;;;29.17;;
20908;SDS011;10614;53.198;6.570;2023-12-07T16:47:18;97.82;;;28.60;;
20908;SDS011;10614;53.198;6.570;2023-12-07T16:49:19;92.55;;;28.48;;
20908;SDS011;10614;53.198;6.570;2023-12-07T16:51:22;102.20;;;30.25;;
20908;SDS011;10614;53.198;6.570;2023-12-07T16:53:23;110.88;;;32.13;;
20908;SDS011;10614;53.198;6.570;2023-12-07T16:55:25;113.03;;;30.15;;
20908;SDS011;10614;53.198;6.570;2023-12-07T16:57:28;110.13;;;33.40;;
20908;SDS011;10614;53.198;6.570;2023-12-07T16:59:29;106.10;;;30.17;;
20908;SDS011;10614;53.198;6.570;2023-12-07T17:01:32;105.20;;;31.02;;
20908;SDS011;10614;53.198;6.570;2023-12-07T17:03:34;99.13;;;30.55;;
20908;SDS011;10614;53.198;6.570;2023-12-07T17:05:37;111.88;;;31.13;;
20908;SDS011;10614;53.198;6.570;2023-12-07T17:07:41;102.63;;;30.50;;
20908;SDS011;10614;53.198;6.570;2023-12-07T17:09:42;107.07;;;32.17;;
20908;SDS011;10614;53.198;6.570;2023-12-07T17:11:44;97.32;;;31.15;;
20908;SDS011;10614;53.198;6.570;2023-12-07T17:13:45;93.32;;;30.90;;
20908;SDS011;10614;53.198;6.570;2023-12-07T17:15:48;96.45;;;30.83;;
20908;SDS011;10614;53.198;6.570;2023-12-07T17:17:52;98.88;;;31.65;;
20908;SDS011;10614;53.198;6.570;2023-12-07T17:19:54;104.68;;;31.88;;
20908;SDS011;10614;53.198;6.570;2023-12-07T17:21:56;100.95;;;30.52;;
20908;SDS011;10614;53.198;6.570;2023-12-07T17:23:58;94.07;;;30.90;;
20908;SDS011;10614;53.198;6.570;2023-12-07T17:26:00;111.50;;;33.55;;
20908;SDS011;10614;53.198;6.570;2023-12-07T17:28:02;97.80;;;31.45;;
20908;SDS011;10614;53.198;6.570;2023-12-07T17:30:04;103.70;;;33.00;;
20908;SDS011;10614;53.198;6.570;2023-12-07T17:32:08;95.07;;;30.75;;
20908;SDS011;10614;53.198;6.570;2023-12-07T17:34:11;92.63;;;31.45;;
20908;SDS011;10614;53.198;6.570;2023-12-07T17:36:12;94.45;;;31.90;;
20908;SDS011;10614;53.198;6.570;2023-12-07T17:38:14;96.88;;;31.83;;
20908;SDS011;10614;53.198;6.570;2023-12-07T17:40:16;95.00;;;31.20;;
20908;SDS011;10614;53.198;6.570;2023-12-07T17:42:17;88.47;;;31.00;;
20908;SDS011;10614;53.198;6.570;2023-12-07T17:44:22;97.13;;;32.58;;
20908;SDS011;10614;53.198;6.570;2023-12-07T17:46:24;92.78;;;30.05;;
20908;SDS011;10614;53.198;6.570;2023-12-07T17:48:26;90.95;;;30.83;;
20908;SDS011;10614;53.198;6.570;2023-12-07T17:50:29;88.35;;;29.48;;
20908;SDS011;10614;53.198;6.570;2023-12-07T17:52:31;90.78;;;31.80;;
20908;SDS011;10614;53.198;6.570;2023-12-07T18:00:56;98.22;;;31.80;;
20908;SDS011;10614;53.198;6.570;2023-12-07T18:05:03;90.18;;;30.92;;
20908;SDS011;10614;53.198;6.570;2023-12-07T18:09:11;83.50;;;28.38;;
20908;SDS011;10614;53.198;6.570;2023-12-07T18:11:17;88.28;;;30.75;;
20908;SDS011;10614;53.198;6.570;2023-12-07T18:13:23;90.80;;;30.27;;
20908;SDS011;10614;53.198;6.570;2023-12-07T18:15:25;89.20;;;30.65;;
20908;SDS011;10614;53.198;6.570;2023-12-07T18:17:26;92.43;;;31.48;;
20908;SDS011;10614;53.198;6.570;2023-12-07T18:19:28;91.10;;;32.28;;
20908;SDS011;10614;53.198;6.570;2023-12-07T18:21:30;83.25;;;30.10;;
20908;SDS011;10614;53.198;6.570;2023-12-07T18:23:34;90.13;;;30.33;;
20908;SDS011;10614;53.198;6.570;2023-12-07T18:25:36;87.15;;;30.80;;
20908;SDS011;10614;53.198;6.570;2023-12-07T18:27:38;96.28;;;31.80;;
20908;SDS011;10614;53.198;6.570;2023-12-07T18:29:40;88.32;;;32.00;;
20908;SDS011;10614;53.198;6.570;2023-12-07T18:31:42;84.22;;;30.08;;
20908;SDS011;10614;53.198;6.570;2023-12-07T18:33:46;87.68;;;30.23;;
20908;SDS011;10614;53.198;6.570;2023-12-07T18:35:49;86.38;;;31.42;;
20908;SDS011;10614;53.198;6.570;2023-12-07T18:37:50;88.50;;;31.63;;
20908;SDS011;10614;53.198;6.570;2023-12-07T18:39:54;104.30;;;37.47;;
20908;SDS011;10614;53.198;6.570;2023-12-07T18:41:55;89.68;;;34.28;;
20908;SDS011;10614;53.198;6.570;2023-12-07T18:43:57;89.30;;;32.25;;
20908;SDS011;10614;53.198;6.570;2023-12-07T18:45:59;91.90;;;32.88;;
20908;SDS011;10614;53.198;6.570;2023-12-07T18:48:08;95.60;;;33.70;;
20908;SDS011;10614;53.198;6.570;2023-12-07T18:50:09;90.10;;;31.80;;
20908;SDS011;10614;53.198;6.570;2023-12-07T18:52:11;90.30;;;32.83;;
20908;SDS011;10614;53.198;6.570;2023-12-07T18:54:13;89.60;;;32.40;;
20908;SDS011;10614;53.198;6.570;2023-12-07T18:56:17;82.72;;;32.55;;
20908;SDS011;10614;53.198;6.570;2023-12-07T18:58:19;84.15;;;30.30;;
20908;SDS011;10614;53.198;6.570;2023-12-07T19:00:22;84.88;;;32.00;;
20908;SDS011;10614;53.198;6.570;2023-12-07T19:02:24;89.03;;;32.42;;
20908;SDS011;10614;53.198;6.570;2023-12-07T19:04:26;83.32;;;31.02;;
20908;SDS011;10614;53.198;6.570;2023-12-07T19:06:28;83.18;;;31.95;;
20908;SDS011;10614;53.198;6.570;2023-12-07T19:08:30;77.35;;;30.95;;
20908;SDS011;10614;53.198;6.570;2023-12-07T19:12:47;77.32;;;30.15;;
20908;SDS011;10614;53.198;6.570;2023-12-07T19:14:50;78.82;;;30.38;;
20908;SDS011;10614;53.198;6.570;2023-12-07T19:16:52;79.88;;;29.58;;
20908;SDS011;10614;53.198;6.570;2023-12-07T19:18:54;82.82;;;31.63;;
20908;SDS011;10614;53.198;6.570;2023-12-07T19:20:56;88.22;;;32.17;;
20908;SDS011;10614;53.198;6.570;2023-12-07T19:22:57;88.30;;;31.17;;
20908;SDS011;10614;53.198;6.570;2023-12-07T19:24:59;92.18;;;31.48;;
20908;SDS011;10614;53.198;6.570;2023-12-07T19:27:01;89.13;;;31.27;;
20908;SDS011;10614;53.198;6.570;2023-12-07T19:29:04;90.70;;;33.00;;
20908;SDS011;10614;53.198;6.570;2023-12-07T19:31:06;88.28;;;32.08;;
20908;SDS011;10614;53.198;6.570;2023-12-07T19:33:08;102.28;;;32.30;;
20908;SDS011;10614;53.198;6.570;2023-12-07T19:35:13;95.57;;;31.55;;
20908;SDS011;10614;53.198;6.570;2023-12-07T19:37:31;87.50;;;31.45;;
20908;SDS011;10614;53.198;6.570;2023-12-07T19:39:36;87.47;;;31.38;;
20908;SDS011;10614;53.198;6.570;2023-12-07T19:41:39;91.38;;;31.58;;
20908;SDS011;10614;53.198;6.570;2023-12-07T19:43:41;86.22;;;31.48;;
20908;SDS011;10614;53.198;6.570;2023-12-07T19:45:45;86.80;;;30.98;;
20908;SDS011;10614;53.198;6.570;2023-12-07T19:47:47;93.72;;;32.88;;
20908;SDS011;10614;53.198;6.570;2023-12-07T19:49:49;92.80;;;33.55;;
20908;SDS011;10614;53.198;6.570;2023-12-07T19:51:50;91.90;;;31.17;;
20908;SDS011;10614;53.198;6.570;2023-12-07T19:53:51;86.70;;;31.77;;
20908;SDS011;10614;53.198;6.570;2023-12-07T19:55:53;98.68;;;33.78;;
20908;SDS011;10614;53.198;6.570;2023-12-07T19:57:55;95.60;;;33.97;;
20908;SDS011;10614;53.198;6.570;2023-12-07T19:59:59;86.72;;;32.13;;
20908;SDS011;10614;53.198;6.570;2023-12-07T20:02:01;101.78;;;33.55;;
20908;SDS011;10614;53.198;6.570;2023-12-07T20:04:03;101.50;;;33.25;;
20908;SDS011;10614;53.198;6.570;2023-12-07T20:06:05;95.88;;;32.33;;
20908;SDS011;10614;53.198;6.570;2023-12-07T20:08:07;101.07;;;33.92;;
20908;SDS011;10614;53.198;6.570;2023-12-07T20:10:09;92.78;;;34.60;;
20908;SDS011;10614;53.198;6.570;2023-12-07T20:12:11;97.45;;;34.35;;
20908;SDS011;10614;53.198;6.570;2023-12-07T20:14:13;106.28;;;34.88;;
20908;SDS011;10614;53.198;6.570;2023-12-07T20:16:15;101.60;;;32.25;;
20908;SDS011;10614;53.198;6.570;2023-12-07T20:18:18;91.45;;;33.20;;
20908;SDS011;10614;53.198;6.570;2023-12-07T20:20:20;105.32;;;34.80;;
20908;SDS011;10614;53.198;6.570;2023-12-07T20:22:21;93.88;;;33.88;;
20908;SDS011;10614;53.198;6.570;2023-12-07T20:24:23;101.95;;;34.13;;
20908;SDS011;10614;53.198;6.570;2023-12-07T20:26:27;105.60;;;35.70;;
20908;SDS011;10614;53.198;6.570;2023-12-07T20:28:29;104.57;;;33.22;;
20908;SDS011;10614;53.198;6.570;2023-12-07T20:30:31;98.90;;;33.28;;
20908;SDS011;10614;53.198;6.570;2023-12-07T20:32:32;96.68;;;33.85;;
20908;SDS011;10614;53.198;6.570;2023-12-07T20:34:36;101.53;;;33.22;;
20908;SDS011;10614;53.198;6.570;2023-12-07T20:36:39;110.93;;;35.45;;
20908;SDS011;10614;53.198;6.570;2023-12-07T20:38:42;109.75;;;36.00;;
20908;SDS011;10614;53.198;6.570;2023-12-07T20:40:44;101.82;;;32.83;;
20908;SDS011;10614;53.198;6.570;2023-12-07T20:42:46;95.03;;;34.00;;
20908;SDS011;10614;53.198;6.570;2023-12-07T20:44:50;103.93;;;34.63;;
20908;SDS011;10614;53.198;6.570;2023-12-07T20:46:52;109.45;;;35.28;;
20908;SDS011;10614;53.198;6.570;2023-12-07T20:48:53;101.80;;;35.30;;
20908;SDS011;10614;53.198;6.570;2023-12-07T20:50:56;102.90;;;33.67;;
20908;SDS011;10614;53.198;6.570;2023-12-07T20:52:58;97.13;;;32.75;;
20908;SDS011;10614;53.198;6.570;2023-12-07T20:55:03;73.32;;;26.48;;
20908;SDS011;10614;53.198;6.570;2023-12-07T20:57:05;101.50;;;34.97;;
20908;SDS011;10614;53.198;6.570;2023-12-07T20:59:08;84.88;;;32.53;;
20908;SDS011;10614;53.198;6.570;2023-12-07T21:01:09;109.72;;;34.72;;
20908;SDS011;10614;53.198;6.570;2023-12-07T21:03:13;105.70;;;34.67;;
20908;SDS011;10614;53.198;6.570;2023-12-07T21:05:15;98.55;;;34.15;;
20908;SDS011;10614;53.198;6.570;2023-12-07T21:07:18;97.93;;;33.33;;
20908;SDS011;10614;53.198;6.570;2023-12-07T21:09:23;96.65;;;33.58;;
20908;SDS011;10614;53.198;6.570;2023-12-07T21:11:26;99.55;;;32.60;;
20908;SDS011;10614;53.198;6.570;2023-12-07T21:13:28;86.45;;;31.73;;
20908;SDS011;10614;53.198;6.570;2023-12-07T21:15:30;97.68;;;31.55;;
20908;SDS011;10614;53.198;6.570;2023-12-07T21:17:31;92.70;;;31.45;;
20908;SDS011;10614;53.198;6.570;2023-12-07T21:19:34;89.50;;;32.95;;
20908;SDS011;10614;53.198;6.570;2023-12-07T21:21:35;92.88;;;31.52;;
20908;SDS011;10614;53.198;6.570;2023-12-07T21:23:39;100.35;;;32.88;;
20908;SDS011;10614;53.198;6.570;2023-12-07T21:25:41;95.53;;;33.03;;
20908;SDS011;10614;53.198;6.570;2023-12-07T21:27:43;91.32;;;32.92;;
20908;SDS011;10614;53.198;6.570;2023-12-07T21:29:45;87.85;;;33.08;;
20908;SDS011;10614;53.198;6.570;2023-12-07T21:31:47;94.35;;;32.38;;
20908;SDS011;10614;53.198;6.570;2023-12-07T21:33:49;88.45;;;32.38;;
20908;SDS011;10614;53.198;6.570;2023-12-07T21:35:50;84.40;;;30.83;;
20908;SDS011;10614;53.198;6.570;2023-12-07T21:37:52;81.68;;;30.33;;
20908;SDS011;10614;53.198;6.570;2023-12-07T21:39:55;79.55;;;30.50;;
20908;SDS011;10614;53.198;6.570;2023-12-07T21:41:57;81.20;;;29.35;;
20908;SDS011;10614;53.198;6.570;2023-12-07T21:44:00;82.70;;;31.10;;
20908;SDS011;10614;53.198;6.570;2023-12-07T21:46:02;84.95;;;30.45;;
20908;SDS011;10614;53.198;6.570;2023-12-07T21:48:04;80.57;;;30.95;;
20908;SDS011;10614;53.198;6.570;2023-12-07T21:50:06;84.85;;;30.02;;
20908;SDS011;10614;53.198;6.570;2023-12-07T21:52:08;80.85;;;29.65;;
20908;SDS011;10614;53.198;6.570;2023-12-07T21:54:10;83.57;;;30.00;;
20908;SDS011;10614;53.198;6.570;2023-12-07T21:56:13;78.95;;;30.55;;
20908;SDS011;10614;53.198;6.570;2023-12-07T21:58:15;79.68;;;30.20;;
20908;SDS011;10614;53.198;6.570;2023-12-07T22:00:17;77.72;;;30.05;;
20908;SDS011;10614;53.198;6.570;2023-12-07T22:02:19;83.20;;;30.33;;
20908;SDS011;10614;53.198;6.570;2023-12-07T22:04:20;72.88;;;29.38;;
20908;SDS011;10614;53.198;6.570;2023-12-07T22:06:23;82.18;;;28.90;;
20908;SDS011;10614;53.198;6.570;2023-12-07T22:08:24;76.85;;;30.05;;
20908;SDS011;10614;53.198;6.570;2023-12-07T22:10:26;79.78;;;29.05;;
20908;SDS011;10614;53.198;6.570;2023-12-07T22:12:29;68.30;;;27.27;;
20908;SDS011;10614;53.198;6.570;2023-12-07T22:14:31;70.10;;;27.58;;
20908;SDS011;10614;53.198;6.570;2023-12-07T22:16:31;75.72;;;31.48;;
20908;SDS011;10614;53.198;6.570;2023-12-07T22:18:33;75.00;;;29.52;;
20908;SDS011;10614;53.198;6.570;2023-12-07T22:20:35;72.85;;;28.08;;
20908;SDS011;10614;53.198;6.570;2023-12-07T22:22:37;70.20;;;28.95;;
20908;SDS011;10614;53.198;6.570;2023-12-07T22:24:43;75.43;;;28.98;;
20908;SDS011;10614;53.198;6.570;2023-12-07T22:26:44;63.78;;;28.17;;
20908;SDS011;10614;53.198;6.570;2023-12-07T22:28:54;69.53;;;28.15;;
20908;SDS011;10614;53.198;6.570;2023-12-07T22:30:57;68.22;;;27.23;;
20908;SDS011;10614;53.198;6.570;2023-12-07T22:32:58;65.40;;;26.92;;
20908;SDS011;10614;53.198;6.570;2023-12-07T22:35:00;64.65;;;27.65;;
20908;SDS011;10614;53.198;6.570;2023-12-07T22:37:01;65.03;;;26.77;;
20908;SDS011;10614;53.198;6.570;2023-12-07T22:39:03;57.40;;;25.13;;
20908;SDS011;10614;53.198;6.570;2023-12-07T22:41:11;64.80;;;25.52;;
20908;SDS011;10614;53.198;6.570;2023-12-07T22:43:17;56.72;;;24.75;;
20908;SDS011;10614;53.198;6.570;2023-12-07T22:45:20;59.08;;;24.10;;
20908;SDS011;10614;53.198;6.570;2023-12-07T22:47:21;63.63;;;25.73;;
20908;SDS011;10614;53.198;6.570;2023-12-07T22:49:23;65.30;;;26.80;;
20908;SDS011;10614;53.198;6.570;2023-12-07T22:51:25;62.63;;;26.00;;
20908;SDS011;10614;53.198;6.570;2023-12-07T22:53:27;55.90;;;24.42;;
20908;SDS011;10614;53.198;6.570;2023-12-07T22:55:29;57.83;;;23.67;;
20908;SDS011;10614;53.198;6.570;2023-12-07T22:57:31;62.30;;;25.67;;
20908;SDS011;10614;53.198;6.570;2023-12-07T22:59:32;60.78;;;25.38;;
20908;SDS011;10614;53.198;6.570;2023-12-07T23:01:35;52.90;;;23.23;;
20908;SDS011;10614;53.198;6.570;2023-12-07T23:03:37;55.17;;;25.15;;
20908;SDS011;10614;53.198;6.570;2023-12-07T23:05:39;56.20;;;23.27;;
20908;SDS011;10614;53.198;6.570;2023-12-07T23:07:41;50.97;;;23.27;;
20908;SDS011;10614;53.198;6.570;2023-12-07T23:09:43;52.92;;;22.98;;
20908;SDS011;10614;53.198;6.570;2023-12-07T23:11:45;54.35;;;23.80;;
20908;SDS011;10614;53.198;6.570;2023-12-07T23:13:46;57.80;;;23.42;;
20908;SDS011;10614;53.198;6.570;2023-12-07T23:15:48;49.30;;;22.08;;
20908;SDS011;10614;53.198;6.570;2023-12-07T23:17:52;51.13;;;23.00;;
20908;SDS011;10614;53.198;6.570;2023-12-07T23:19:53;52.97;;;22.85;;
20908;SDS011;10614;53.198;6.570;2023-12-07T23:21:54;50.00;;;22.25;;
20908;SDS011;10614;53.198;6.570;2023-12-07T23:23:56;51.42;;;22.40;;
20908;SDS011;10614;53.198;6.570;2023-12-07T23:25:57;45.70;;;21.20;;
20908;SDS011;10614;53.198;6.570;2023-12-07T23:28:00;45.83;;;20.70;;
20908;SDS011;10614;53.198;6.570;2023-12-07T23:30:03;50.30;;;21.40;;
20908;SDS011;10614;53.198;6.570;2023-12-07T23:32:07;37.30;;;17.48;;
20908;SDS011;10614;53.198;6.570;2023-12-07T23:34:10;46.55;;;21.73;;
20908;SDS011;10614;53.198;6.570;2023-12-07T23:36:12;42.70;;;20.27;;
20908;SDS011;10614;53.198;6.570;2023-12-07T23:38:13;46.47;;;20.08;;
20908;SDS011;10614;53.198;6.570;2023-12-07T23:40:15;47.08;;;20.88;;
20908;SDS011;10614;53.198;6.570;2023-12-07T23:42:17;47.00;;;21.30;;
20908;SDS011;10614;53.198;6.570;2023-12-07T23:44:19;47.38;;;22.48;;
20908;SDS011;10614;53.198;6.570;2023-12-07T23:46:21;49.22;;;23.38;;